Millbrook, Alabama
Current Conditions -  °F | °C
As of 4:58 PM on Tuesday 27 Jan 2015 (Local Time) from KMXF Reporting Station
Clear Clear  
Wind Chill: 57°   Ceiling: Unl
Heat Index: 57°   Visibility: 10mi
Dew Point: 34°   Wind: 7mph
Humidity: 42%   Direction: 320°NW
Pressure: 30.04"   Gusts: NA
Location:  32.48°N, 86.36°W
Report Text: KMXF 272258Z AUTO 32006KT 10SM CLR 14/01 A3004 RMK AO2 SLP176 T01370011
Loading
Personal Weather Stations






























Interactive Weather Map New forecast layout! Learn more

10-Day Weather Forecast

Advertisements
Track Severe Weather on mobile